Time;durP1;ratioP1;P1;durP2;ratioP2;P2;SDS_P1;SDS_P2;PMS_P1;PMS_P2;Temp;Humidity;BMP_temperature;BMP_pressure;BME280_temperature;BME280_humidity;BME280_pressure;Samples;Min_cycle;Max_cycle;Signal;HPM_P1;HPM_P2
2024/03/20 00:01:58;;;;;;;1.67;1.57;;;8.30;99.90;;;;;;5121980;28;20431;-81
2024/03/20 00:04:26;;;;;;;4.40;1.40;;;8.30;99.90;;;;;;5140577;28;20416;-85
2024/03/20 00:06:53;;;;;;;2.60;1.80;;;8.30;99.90;;;;;;5140349;28;20498;-83
2024/03/20 00:09:20;;;;;;;3.33;1.73;;;8.30;99.90;;;;;;5140039;28;20453;-82
2024/03/20 00:11:47;;;;;;;4.33;2.70;;;8.20;99.90;;;;;;5138907;28;20427;-82
2024/03/20 00:14:14;;;;;;;1.53;1.43;;;8.20;99.90;;;;;;5118362;28;20461;-81
2024/03/20 00:16:41;;;;;;;2.37;1.70;;;8.10;99.90;;;;;;5117579;28;20436;-81
2024/03/20 00:19:07;;;;;;;1.00;1.00;;;8.10;99.90;;;;;;5117029;28;20474;-81
2024/03/20 00:21:36;;;;;;;2.17;1.47;;;8.10;99.90;;;;;;5117003;28;20451;-81
2024/03/20 00:24:03;;;;;;;2.13;1.63;;;8.00;99.90;;;;;;5117013;28;20440;-81
2024/03/20 00:26:29;;;;;;;1.10;0.90;;;8.10;99.90;;;;;;5117056;28;20454;-82
2024/03/20 00:28:56;;;;;;;0.80;0.80;;;8.10;99.90;;;;;;5116744;28;20466;-80
2024/03/20 00:31:23;;;;;;;2.67;1.10;;;8.10;99.90;;;;;;5116558;28;20439;-82
2024/03/20 00:33:50;;;;;;;2.70;0.77;;;8.10;99.90;;;;;;5116552;28;20443;-81
2024/03/20 00:36:16;;;;;;;2.10;1.20;;;8.10;99.90;;;;;;5115732;28;20458;-81
2024/03/20 00:38:44;;;;;;;1.43;0.90;;;8.10;99.90;;;;;;5115909;28;20474;-82
2024/03/20 00:41:11;;;;;;;1.60;1.00;;;8.20;99.90;;;;;;5116226;28;20447;-81
2024/03/20 00:43:38;;;;;;;0.80;0.77;;;8.10;99.90;;;;;;5116414;28;20474;-81
2024/03/20 00:46:05;;;;;;;2.93;0.87;;;8.10;99.90;;;;;;5116185;28;20451;-80
2024/03/20 00:48:32;;;;;;;2.73;1.33;;;8.10;99.90;;;;;;5115047;28;20461;-83
2024/03/20 00:50:59;;;;;;;1.10;0.70;;;8.10;99.90;;;;;;5115555;28;20451;-82
2024/03/20 00:53:25;;;;;;;0.60;0.60;;;8.10;99.90;;;;;;5114928;28;20436;-80
2024/03/20 00:55:53;;;;;;;1.57;0.90;;;8.00;99.90;;;;;;5115415;28;20427;-81
2024/03/20 00:58:20;;;;;;;1.23;0.93;;;7.90;99.90;;;;;;5114238;28;20487;-81
2024/03/20 01:00:47;;;;;;;2.47;1.00;;;7.90;99.90;;;;;;5115124;28;20442;-81
2024/03/20 01:03:14;;;;;;;1.80;0.87;;;7.80;99.90;;;;;;5114339;28;20817;-81
2024/03/20 01:05:41;;;;;;;1.60;1.13;;;7.80;99.90;;;;;;5114577;28;20454;-81
2024/03/20 01:08:08;;;;;;;0.50;0.50;;;7.70;99.90;;;;;;5115012;28;20466;-81
2024/03/20 01:10:34;;;;;;;0.73;0.73;;;7.70;99.90;;;;;;5115848;28;20450;-81
2024/03/20 01:13:03;;;;;;;0.90;0.70;;;7.60;99.90;;;;;;5114668;28;20454;-81
2024/03/20 01:15:30;;;;;;;1.03;0.70;;;7.60;99.90;;;;;;5115100;28;20794;-81
2024/03/20 01:17:56;;;;;;;0.60;0.60;;;7.70;99.90;;;;;;5114549;28;20471;-81
2024/03/20 01:20:23;;;;;;;0.90;0.67;;;7.60;99.90;;;;;;5114118;28;20442;-80
2024/03/20 01:22:50;;;;;;;0.57;0.57;;;7.60;99.90;;;;;;5114125;28;20454;-81
2024/03/20 01:25:17;;;;;;;0.73;0.73;;;7.60;99.90;;;;;;5113882;28;20427;-81
2024/03/20 01:27:44;;;;;;;1.40;0.83;;;7.60;99.90;;;;;;5114177;28;20502;-81
2024/03/20 01:30:13;;;;;;;0.83;0.70;;;7.50;99.90;;;;;;5114282;28;20435;-81
2024/03/20 01:32:40;;;;;;;1.53;0.60;;;7.60;99.90;;;;;;5114416;28;20431;-80
2024/03/20 01:35:07;;;;;;;2.33;1.37;;;7.60;99.90;;;;;;5114531;28;20446;-81
2024/03/20 01:37:34;;;;;;;1.00;0.80;;;7.50;99.90;;;;;;5118681;28;20877;-81
2024/03/20 01:40:01;;;;;;;1.17;1.07;;;7.50;99.90;;;;;;5119109;28;20486;-81
2024/03/20 01:42:28;;;;;;;1.47;1.20;;;7.50;99.90;;;;;;5118366;28;20431;-81
2024/03/20 01:45:13;;;;;;;1.77;0.90;;;7.40;99.90;;;;;;5117962;28;20513;-80
2024/03/20 01:47:40;;;;;;;1.03;0.77;;;7.40;99.90;;;;;;5118352;28;20463;-81
2024/03/20 01:50:09;;;;;;;1.20;1.10;;;7.40;99.90;;;;;;5118601;28;20443;-81
2024/03/20 01:52:38;;;;;;;0.97;0.87;;;7.40;99.90;;;;;;5118617;28;20455;-81
2024/03/20 01:55:06;;;;;;;1.00;1.00;;;7.40;99.90;;;;;;5118475;28;20443;-80
2024/03/20 01:57:33;;;;;;;2.40;0.97;;;7.40;99.90;;;;;;5118208;28;20435;-81
2024/03/20 02:00:00;;;;;;;5.50;1.33;;;7.50;99.90;;;;;;5118712;28;20455;-81
2024/03/20 02:02:28;;;;;;;0.80;0.80;;;7.40;99.90;;;;;;5118272;28;20449;-81
2024/03/20 02:04:55;;;;;;;1.13;1.03;;;7.40;99.90;;;;;;5118086;28;20804;-81
2024/03/20 02:07:21;;;;;;;0.77;0.77;;;7.30;99.90;;;;;;5117839;28;20446;-81
2024/03/20 02:09:48;;;;;;;1.53;0.90;;;7.30;99.90;;;;;;5118512;28;20446;-81
2024/03/20 02:12:16;;;;;;;1.10;1.00;;;7.30;99.90;;;;;;5118593;28;20790;-80
2024/03/20 02:14:43;;;;;;;2.20;1.00;;;7.30;99.90;;;;;;5118630;28;20449;-81
2024/03/20 02:17:10;;;;;;;1.77;1.13;;;7.30;99.90;;;;;;5118559;28;20956;-81
2024/03/20 02:19:38;;;;;;;2.77;1.60;;;7.30;99.90;;;;;;5118235;28;20565;-81
2024/03/20 02:22:06;;;;;;;2.30;1.30;;;7.30;99.90;;;;;;5119080;28;20443;-81
2024/03/20 02:24:33;;;;;;;2.10;1.30;;;7.30;99.90;;;;;;5119027;28;20824;-81
2024/03/20 02:27:00;;;;;;;2.67;1.60;;;7.30;99.90;;;;;;5118768;28;20808;-81
2024/03/20 02:29:27;;;;;;;3.53;1.40;;;7.20;99.90;;;;;;5118966;28;20463;-81
2024/03/20 02:31:54;;;;;;;1.20;1.10;;;7.20;99.90;;;;;;5118625;28;20436;-80
2024/03/20 02:34:21;;;;;;;1.40;1.30;;;7.20;99.90;;;;;;5118505;28;20443;-81
2024/03/20 02:36:48;;;;;;;4.50;1.90;;;7.10;99.90;;;;;;5118696;28;20530;-81
2024/03/20 02:39:16;;;;;;;3.97;2.03;;;7.10;99.90;;;;;;5118323;28;20493;-80
2024/03/20 02:41:44;;;;;;;2.87;2.17;;;7.20;99.90;;;;;;5118586;28;20435;-81
2024/03/20 02:44:12;;;;;;;2.30;1.50;;;7.20;99.90;;;;;;5119376;28;20438;-81
2024/03/20 02:46:39;;;;;;;2.10;1.90;;;7.20;99.90;;;;;;5118397;28;20808;-81
2024/03/20 02:49:06;;;;;;;2.93;1.90;;;7.20;99.90;;;;;;5122769;28;20546;-81
2024/03/20 02:51:33;;;;;;;2.87;1.60;;;7.20;99.90;;;;;;5117849;28;20431;-80
2024/03/20 02:54:00;;;;;;;1.40;1.17;;;7.20;99.90;;;;;;5117415;28;20439;-81
2024/03/20 02:56:28;;;;;;;1.33;1.00;;;7.20;99.90;;;;;;5117471;28;20959;-80
2024/03/20 02:58:55;;;;;;;1.60;1.50;;;7.20;99.90;;;;;;5117609;28;21026;-81
2024/03/20 03:01:22;;;;;;;1.30;1.20;;;7.10;99.90;;;;;;5118354;28;20431;-81
2024/03/20 03:07:26;;;;;;;1.57;1.37;;;7.20;99.90;;;;;;5139310;28;20444;-81
2024/03/20 03:09:53;;;;;;;1.97;1.40;;;7.20;99.90;;;;;;5140412;28;20435;-81
2024/03/20 03:12:21;;;;;;;2.60;1.77;;;7.20;99.90;;;;;;5131399;28;20945;-80
2024/03/20 03:18:27;;;;;;;2.30;1.70;;;7.20;99.90;;;;;;5115963;28;20505;-81
2024/03/20 03:20:54;;;;;;;1.87;1.17;;;7.10;99.90;;;;;;5117596;28;20447;-81
2024/03/20 03:23:20;;;;;;;0.70;0.70;;;7.10;99.90;;;;;;5117502;28;20974;-80
2024/03/20 03:25:47;;;;;;;1.90;1.23;;;7.10;99.90;;;;;;5117296;28;20442;-80
2024/03/20 03:28:15;;;;;;;2.00;1.37;;;7.10;99.90;;;;;;5117359;28;20455;-80
2024/03/20 03:30:42;;;;;;;1.30;1.20;;;7.10;99.90;;;;;;5117628;28;20811;-80
2024/03/20 03:33:09;;;;;;;1.70;1.30;;;7.20;99.90;;;;;;5117394;28;20449;-81
2024/03/20 03:35:36;;;;;;;2.47;1.43;;;7.20;99.90;;;;;;5116646;28;20443;-81
2024/03/20 03:38:03;;;;;;;2.73;1.10;;;7.20;99.90;;;;;;5116688;28;20525;-80
2024/03/20 03:40:30;;;;;;;2.30;1.13;;;7.20;99.90;;;;;;5116319;28;20764;-81
2024/03/20 03:42:56;;;;;;;2.07;1.10;;;7.20;99.90;;;;;;5116130;28;20428;-81
2024/03/20 03:45:25;;;;;;;1.40;1.30;;;7.20;99.90;;;;;;5116484;28;20450;-81
2024/03/20 03:47:51;;;;;;;4.13;1.80;;;7.20;99.90;;;;;;5116318;28;20474;-80
2024/03/20 03:50:18;;;;;;;5.43;1.90;;;7.20;99.90;;;;;;5116290;28;20807;-81
2024/03/20 03:52:45;;;;;;;2.43;1.80;;;7.10;99.90;;;;;;5116252;28;20447;-80
2024/03/20 03:55:12;;;;;;;1.63;1.30;;;7.30;99.90;;;;;;5116314;28;20944;-80
2024/03/20 03:57:39;;;;;;;3.17;1.90;;;7.10;99.90;;;;;;5115850;28;20478;-81
2024/03/20 04:00:09;;;;;;;3.60;1.50;;;7.10;99.90;;;;;;5115745;28;20459;-81
2024/03/20 04:02:37;;;;;;;2.80;2.00;;;7.20;99.90;;;;;;5116201;28;20953;-80
2024/03/20 04:05:05;;;;;;;2.00;1.67;;;7.20;99.90;;;;;;5117261;28;20453;-81
2024/03/20 04:07:32;;;;;;;2.20;1.60;;;7.20;99.90;;;;;;5116629;28;20439;-80
2024/03/20 04:09:59;;;;;;;1.80;1.50;;;7.20;99.90;;;;;;5119078;28;20517;-81
2024/03/20 04:12:26;;;;;;;2.07;1.00;;;7.20;99.90;;;;;;5119851;28;20525;-81
2024/03/20 04:14:53;;;;;;;2.50;1.27;;;7.20;99.90;;;;;;5118767;28;20447;-81
2024/03/20 04:17:20;;;;;;;3.10;1.77;;;7.30;99.90;;;;;;5117224;28;20451;-81
2024/03/20 04:19:48;;;;;;;1.97;1.87;;;7.10;99.90;;;;;;5117981;28;20851;-80
2024/03/20 04:22:15;;;;;;;4.50;1.97;;;7.50;99.90;;;;;;5118391;28;20457;-81
2024/03/20 04:24:42;;;;;;;2.20;1.50;;;7.10;99.90;;;;;;5118933;28;20504;-81
2024/03/20 04:30:07;;;;;;;3.87;2.67;;;7.10;99.90;;;;;;5075729;22;20974;-80
2024/03/20 04:32:34;;;;;;;3.97;2.07;;;7.10;99.90;;;;;;4997393;28;20453;-80
2024/03/20 04:35:02;;;;;;;9.90;2.57;;;7.10;99.90;;;;;;4997288;28;20518;-80
2024/03/20 04:37:29;;;;;;;3.20;2.20;;;7.10;99.90;;;;;;4996662;28;20449;-80
2024/03/20 04:39:56;;;;;;;4.80;2.73;;;7.10;99.90;;;;;;4996023;28;20477;-80
2024/03/20 04:42:22;;;;;;;4.57;3.23;;;7.10;99.90;;;;;;4996430;28;20457;-80
2024/03/20 04:44:49;;;;;;;4.20;3.00;;;7.00;99.90;;;;;;4995680;28;20445;-80
2024/03/20 04:47:16;;;;;;;5.80;4.40;;;7.10;99.90;;;;;;4995737;28;20465;-80
2024/03/20 04:49:43;;;;;;;4.53;3.27;;;7.10;99.90;;;;;;4996167;28;20524;-80
2024/03/20 04:52:11;;;;;;;6.30;3.90;;;7.20;99.90;;;;;;4996111;28;20816;-80
2024/03/20 04:54:37;;;;;;;4.80;3.30;;;7.10;99.90;;;;;;4995628;28;20455;-80
2024/03/20 04:57:04;;;;;;;6.23;3.60;;;7.20;99.90;;;;;;4995303;28;20443;-80
2024/03/20 04:59:31;;;;;;;10.03;4.50;;;7.20;99.90;;;;;;4994802;28;20492;-80
2024/03/20 05:01:58;;;;;;;8.27;4.20;;;7.20;99.90;;;;;;4999258;28;20474;-80
2024/03/20 05:04:24;;;;;;;7.77;4.60;;;7.20;99.90;;;;;;4995421;28;20455;-80
2024/03/20 05:06:51;;;;;;;6.93;4.13;;;7.30;99.90;;;;;;4995348;28;20961;-80
2024/03/20 05:09:19;;;;;;;6.23;4.50;;;7.20;99.90;;;;;;4995495;28;20812;-80
2024/03/20 05:11:46;;;;;;;10.73;5.67;;;7.30;99.90;;;;;;4997841;28;20456;-81
2024/03/20 05:14:13;;;;;;;3.97;3.07;;;7.30;99.90;;;;;;4999313;28;20811;-80
2024/03/20 05:16:40;;;;;;;5.40;3.70;;;7.30;99.90;;;;;;4999193;28;20448;-80
2024/03/20 05:19:07;;;;;;;5.13;3.70;;;7.30;99.90;;;;;;4998683;28;20480;-80
2024/03/20 05:21:33;;;;;;;6.37;4.23;;;7.50;99.90;;;;;;4998681;28;20441;-80
2024/03/20 05:24:00;;;;;;;6.00;3.77;;;7.30;99.90;;;;;;4999131;28;20451;-80
2024/03/20 05:26:27;;;;;;;8.03;4.40;;;7.30;99.90;;;;;;4999172;28;20447;-81
2024/03/20 05:28:54;;;;;;;7.10;4.40;;;7.30;99.90;;;;;;4998888;28;20484;-81
2024/03/20 05:31:26;;;;;;;8.53;4.10;;;7.20;99.90;;;;;;4999464;28;20440;-81
2024/03/20 05:33:52;;;;;;;7.40;4.00;;;7.20;99.90;;;;;;4999421;28;20417;-81
2024/03/20 05:36:18;;;;;;;7.47;2.83;;;7.30;99.90;;;;;;4998612;28;20448;-81
2024/03/20 05:38:45;;;;;;;7.63;3.73;;;7.20;99.90;;;;;;4998565;28;21004;-80
2024/03/20 05:41:10;;;;;;;4.97;3.03;;;7.20;99.90;;;;;;4998156;28;20229;-81
2024/03/20 05:43:38;;;;;;;6.50;3.70;;;7.20;99.90;;;;;;4998194;28;20800;-81
2024/03/20 05:46:04;;;;;;;5.27;3.83;;;7.20;99.90;;;;;;4999240;28;20209;-81
2024/03/20 05:48:31;;;;;;;10.63;4.10;;;7.30;99.90;;;;;;4998254;28;21012;-81
2024/03/20 05:50:57;;;;;;;3.10;2.60;;;7.30;99.90;;;;;;4999670;28;20220;-81
2024/03/20 05:53:24;;;;;;;7.87;3.40;;;7.30;99.90;;;;;;4998290;28;20934;-81
2024/03/20 05:55:50;;;;;;;5.50;3.40;;;7.30;99.90;;;;;;4998082;28;20459;-82
2024/03/20 05:58:17;;;;;;;4.13;2.97;;;7.40;99.90;;;;;;4998584;28;20989;-81
2024/03/20 06:00:44;;;;;;;3.93;2.30;;;7.40;99.90;;;;;;5005116;28;20201;-80
2024/03/20 06:03:11;;;;;;;4.53;2.80;;;7.40;99.90;;;;;;5022177;28;20428;-80
2024/03/20 06:05:37;;;;;;;5.50;3.17;;;7.40;99.90;;;;;;5022247;28;20440;-82
2024/03/20 06:08:04;;;;;;;5.17;2.60;;;7.40;99.90;;;;;;5021541;28;20467;-81
2024/03/20 06:10:30;;;;;;;5.00;2.40;;;7.40;99.90;;;;;;5005869;28;20205;-81
2024/03/20 06:12:57;;;;;;;2.30;2.13;;;7.40;99.90;;;;;;4998446;28;20448;-81
2024/03/20 06:15:22;;;;;;;4.17;2.50;;;7.40;99.90;;;;;;4997806;28;20201;-81
2024/03/20 06:17:51;;;;;;;2.30;2.10;;;7.40;99.90;;;;;;4998352;28;20484;-80
2024/03/20 06:20:17;;;;;;;3.57;1.90;;;7.40;99.90;;;;;;4998107;28;20264;-80
2024/03/20 06:22:45;;;;;;;4.50;3.20;;;7.60;99.90;;;;;;4998126;28;20926;-80
2024/03/20 06:25:12;;;;;;;5.77;2.40;;;8.00;99.90;;;;;;4997914;28;20417;-81
2024/03/20 06:27:39;;;;;;;3.67;2.57;;;8.50;99.90;;;;;;4998575;28;20990;-81
2024/03/20 06:30:11;;;;;;;3.90;2.60;;;9.10;99.90;;;;;;5004594;28;20491;-81
2024/03/20 06:32:38;;;;;;;7.00;3.37;;;9.80;99.90;;;;;;5002057;28;20463;-82
2024/03/20 06:35:06;;;;;;;7.47;2.73;;;10.70;99.90;;;;;;5002313;28;20429;-82
2024/03/20 06:37:33;;;;;;;3.10;2.50;;;11.10;99.90;;;;;;5002250;28;20532;-83
2024/03/20 06:39:58;;;;;;;7.77;2.87;;;11.10;99.90;;;;;;5001934;28;20488;-82
2024/03/20 06:42:26;;;;;;;3.10;2.80;;;10.80;99.90;;;;;;5001359;28;20488;-82
2024/03/20 06:44:53;;;;;;;3.43;2.67;;;10.50;99.90;;;;;;5001352;28;20212;-82
2024/03/20 06:47:20;;;;;;;4.83;2.83;;;10.20;99.90;;;;;;5000795;28;20442;-83
2024/03/20 06:49:48;;;;;;;4.20;2.73;;;9.90;99.90;;;;;;5000561;28;20449;-82
2024/03/20 06:52:16;;;;;;;4.30;2.97;;;9.80;99.90;;;;;;5001103;28;20499;-82
2024/03/20 06:54:46;;;;;;;5.03;2.80;;;9.60;99.90;;;;;;5001360;28;20460;-82
2024/03/20 06:57:13;;;;;;;4.57;2.53;;;9.40;99.90;;;;;;5000595;28;20454;-82
2024/03/20 06:59:40;;;;;;;3.23;2.27;;;9.30;99.90;;;;;;5000115;28;20503;-82
2024/03/20 07:02:06;;;;;;;2.67;2.47;;;9.20;99.90;;;;;;5000111;28;20460;-82
2024/03/20 07:04:33;;;;;;;4.53;3.30;;;9.20;99.90;;;;;;4999285;28;20437;-82
2024/03/20 07:07:01;;;;;;;5.00;3.37;;;9.20;99.90;;;;;;5000632;28;20448;-82
2024/03/20 07:09:30;;;;;;;3.73;2.10;;;9.20;99.90;;;;;;4999840;28;20508;-82
2024/03/20 07:11:56;;;;;;;4.40;3.67;;;9.30;99.90;;;;;;5000513;28;20452;-82
2024/03/20 07:14:24;;;;;;;3.83;2.67;;;9.20;99.90;;;;;;4999978;28;20435;-82
2024/03/20 07:16:50;;;;;;;4.23;3.00;;;9.40;99.90;;;;;;4999519;28;20205;-82
2024/03/20 07:19:16;;;;;;;3.77;3.23;;;9.20;99.90;;;;;;4999145;28;20475;-82
2024/03/20 07:21:42;;;;;;;3.87;3.40;;;9.20;99.90;;;;;;4997504;28;20256;-82
2024/03/20 07:24:09;;;;;;;3.90;2.30;;;9.20;99.90;;;;;;4999242;28;20499;-82
2024/03/20 07:26:37;;;;;;;6.77;3.83;;;9.20;99.90;;;;;;4999549;28;20206;-82
2024/03/20 07:29:05;;;;;;;5.30;3.20;;;9.30;99.90;;;;;;4998704;28;20522;-82
2024/03/20 07:31:32;;;;;;;7.77;4.67;;;9.30;99.90;;;;;;4999176;28;20449;-82
2024/03/20 07:33:59;;;;;;;3.93;2.73;;;9.40;99.90;;;;;;4998174;28;20444;-82
2024/03/20 07:36:24;;;;;;;4.00;3.50;;;9.50;99.90;;;;;;4998918;28;20778;-82
2024/03/20 07:38:51;;;;;;;4.60;2.87;;;9.50;99.90;;;;;;4998851;28;20622;-82
2024/03/20 07:41:17;;;;;;;2.17;1.83;;;9.60;99.90;;;;;;5000043;28;20228;-82
2024/03/20 07:43:45;;;;;;;4.07;1.70;;;9.80;99.90;;;;;;5001439;28;20440;-82
2024/03/20 07:46:13;;;;;;;1.33;1.23;;;9.90;99.90;;;;;;4998750;28;20212;-82
2024/03/20 07:48:40;;;;;;;1.83;1.53;;;10.00;99.90;;;;;;4998399;28;20468;-82
2024/03/20 07:51:06;;;;;;;3.77;1.73;;;10.30;99.90;;;;;;4998781;28;20567;-82
2024/03/20 07:53:32;;;;;;;2.57;1.90;;;10.50;99.90;;;;;;4996932;28;20962;-82
2024/03/20 07:55:58;;;;;;;4.37;2.50;;;10.70;99.90;;;;;;4998379;28;20251;-82
2024/03/20 07:58:25;;;;;;;2.63;1.83;;;10.90;99.90;;;;;;4999121;28;20488;-82
2024/03/20 08:00:53;;;;;;;3.27;2.10;;;11.00;99.90;;;;;;4997813;28;20225;-82
2024/03/20 08:03:21;;;;;;;2.20;1.53;;;11.30;99.90;;;;;;4997986;28;20456;-82
2024/03/20 08:05:47;;;;;;;2.30;2.10;;;11.50;99.90;;;;;;4998140;28;20958;-82
2024/03/20 08:08:13;;;;;;;3.67;2.30;;;11.60;99.90;;;;;;4998482;28;20475;-82
2024/03/20 08:10:40;;;;;;;2.67;1.70;;;11.60;99.90;;;;;;4998411;28;20197;-83
2024/03/20 08:13:09;;;;;;;4.83;1.93;;;11.80;99.90;;;;;;4998199;28;20512;-82
2024/03/20 08:15:35;;;;;;;3.33;1.93;;;12.00;99.90;;;;;;4998604;28;20457;-82
2024/03/20 08:18:03;;;;;;;1.37;1.20;;;12.10;99.90;;;;;;4998316;28;20831;-82
2024/03/20 08:20:30;;;;;;;2.20;1.50;;;12.20;99.90;;;;;;4998199;28;21076;-83
2024/03/20 08:22:57;;;;;;;2.20;1.53;;;12.40;99.90;;;;;;4997822;28;20440;-82
2024/03/20 08:25:22;;;;;;;1.40;1.13;;;12.60;99.90;;;;;;4998746;28;20205;-82
2024/03/20 08:27:49;;;;;;;1.50;1.40;;;12.90;99.90;;;;;;4998906;28;20463;-82
2024/03/20 08:30:15;;;;;;;1.30;1.20;;;13.20;99.90;;;;;;4999328;28;20209;-82
2024/03/20 08:32:43;;;;;;;1.47;1.33;;;13.40;99.90;;;;;;4997793;28;20770;-82
2024/03/20 08:35:12;;;;;;;3.03;1.40;;;13.60;99.90;;;;;;4997890;28;20671;-82
2024/03/20 08:37:39;;;;;;;1.60;1.50;;;13.90;99.90;;;;;;4997844;28;20832;-82
2024/03/20 08:40:09;;;;;;;2.30;1.87;;;14.10;99.90;;;;;;4997832;28;20480;-82
2024/03/20 08:42:36;;;;;;;1.90;1.20;;;14.40;99.90;;;;;;4997483;28;20946;-82
2024/03/20 08:45:03;;;;;;;2.70;0.83;;;14.60;99.90;;;;;;4997780;28;20455;-82
2024/03/20 08:47:30;;;;;;;2.13;1.73;;;14.90;99.90;;;;;;4997447;28;20543;-82
2024/03/20 08:49:56;;;;;;;3.10;2.30;;;15.10;99.90;;;;;;4998939;28;20520;-82
2024/03/20 08:52:25;;;;;;;0.80;0.80;;;15.30;99.90;;;;;;4996296;28;20421;-81
2024/03/20 08:54:51;;;;;;;0.70;0.70;;;15.50;99.90;;;;;;4996749;28;20449;-81
2024/03/20 08:57:18;;;;;;;0.70;0.70;;;15.70;99.90;;;;;;4996916;28;20518;-82
2024/03/20 08:59:44;;;;;;;1.20;0.93;;;16.00;99.90;;;;;;4996348;28;20626;-81
2024/03/20 09:02:12;;;;;;;0.90;0.90;;;16.20;99.90;;;;;;4997075;28;20459;-81
2024/03/20 09:04:38;;;;;;;1.50;1.20;;;16.40;99.90;;;;;;5007192;28;20259;-80
2024/03/20 09:07:05;;;;;;;1.03;0.93;;;16.80;99.90;;;;;;5012169;28;20842;-80
2024/03/20 09:09:32;;;;;;;1.00;0.83;;;16.90;99.90;;;;;;5011793;28;20445;-81
2024/03/20 09:11:59;;;;;;;1.00;0.70;;;17.20;99.90;;;;;;5010118;28;20480;-82
2024/03/20 09:14:25;;;;;;;1.37;0.90;;;17.90;99.90;;;;;;4997069;28;20460;-81
2024/03/20 09:16:53;;;;;;;1.13;0.83;;;19.10;99.90;;;;;;4996660;28;20448;-82
2024/03/20 09:19:19;;;;;;;1.00;0.90;;;20.40;99.90;;;;;;4996237;28;20232;-82
2024/03/20 09:21:46;;;;;;;0.90;0.80;;;21.50;99.90;;;;;;4996459;28;20480;-82
2024/03/20 09:24:15;;;;;;;0.83;0.83;;;22.40;99.90;;;;;;4995722;28;20455;-82
2024/03/20 09:26:43;;;;;;;2.50;0.80;;;23.60;99.90;;;;;;4996675;28;20208;-82
2024/03/20 09:29:10;;;;;;;0.93;0.93;;;24.10;95.40;;;;;;4995471;28;20232;-81
2024/03/20 09:31:38;;;;;;;1.10;0.70;;;24.80;92.80;;;;;;4995895;28;20201;-82
2024/03/20 09:34:04;;;;;;;0.70;0.70;;;25.20;90.90;;;;;;4995496;28;20213;-82
2024/03/20 09:36:31;;;;;;;1.10;0.80;;;25.70;89.00;;;;;;4996435;28;20247;-82
2024/03/20 09:38:57;;;;;;;0.70;0.70;;;25.80;78.80;;;;;;4995843;28;20224;-82
2024/03/20 09:41:24;;;;;;;1.15;0.80;;;25.80;77.90;;;;;;4996002;28;20228;-82
2024/03/20 09:43:52;;;;;;;2.78;0.70;;;26.30;76.40;;;;;;4995821;28;20204;-82
2024/03/20 09:46:20;;;;;;;0.80;0.80;;;26.30;73.40;;;;;;4995841;28;20284;-82
2024/03/20 09:48:47;;;;;;;0.60;0.60;;;25.70;74.30;;;;;;4995782;28;20590;-82
2024/03/20 09:51:13;;;;;;;0.60;0.60;;;26.00;74.40;;;;;;4995732;28;20197;-82
2024/03/20 09:53:43;;;;;;;0.60;0.60;;;26.20;69.10;;;;;;4995444;28;20741;-82
2024/03/20 09:56:10;;;;;;;0.50;0.50;;;26.10;67.80;;;;;;4995928;28;20234;-82
2024/03/20 09:58:38;;;;;;;1.85;0.60;;;26.60;70.20;;;;;;4998834;28;20220;-82
2024/03/20 10:01:11;;;;;;;0.60;0.60;;;26.90;69.10;;;;;;4999182;28;20640;-82
2024/03/20 10:03:39;;;;;;;1.45;0.60;;;26.10;67.20;;;;;;4999120;28;20185;-82
2024/03/20 10:06:05;;;;;;;0.77;0.70;;;25.50;66.60;;;;;;4998820;28;20549;-82
2024/03/20 10:08:33;;;;;;;0.70;0.70;;;25.10;69.00;;;;;;4998832;28;20311;-82
2024/03/20 10:10:59;;;;;;;0.60;0.60;;;25.60;69.50;;;;;;4999018;28;20239;-81
2024/03/20 10:13:25;;;;;;;0.82;0.82;;;26.00;66.90;;;;;;5002116;28;20205;-83
2024/03/20 10:16:04;;;;;;;0.60;0.60;;;25.70;66.40;;;;;;4999166;28;20216;-82
2024/03/20 10:18:32;;;;;;;0.70;0.70;;;25.30;66.30;;;;;;4999428;28;20296;-82
2024/03/20 10:20:58;;;;;;;0.60;0.60;;;25.00;67.40;;;;;;4999541;28;20355;-82
2024/03/20 10:23:25;;;;;;;0.50;0.50;;;24.70;68.70;;;;;;4998903;28;20651;-82
2024/03/20 10:25:51;;;;;;;0.65;0.65;;;24.60;67.20;;;;;;4999596;28;20205;-82
2024/03/20 10:28:21;;;;;;;0.60;0.60;;;25.00;66.00;;;;;;4998111;28;20266;-82
2024/03/20 10:30:51;;;;;;;0.52;0.52;;;25.40;65.00;;;;;;4998113;28;20195;-81
2024/03/20 10:33:19;;;;;;;0.60;0.60;;;25.80;63.00;;;;;;4998130;28;20240;-82
2024/03/20 10:35:50;;;;;;;0.50;0.50;;;25.10;62.00;;;;;;4997556;28;20209;-82
2024/03/20 10:38:18;;;;;;;0.50;0.47;;;25.10;62.50;;;;;;4998618;28;20315;-82
2024/03/20 10:40:47;;;;;;;0.50;0.50;;;24.90;60.20;;;;;;4997760;28;20224;-82
2024/03/20 10:43:18;;;;;;;0.50;0.50;;;24.60;64.40;;;;;;4998563;28;20291;-82
2024/03/20 10:45:45;;;;;;;0.50;0.47;;;24.90;62.70;;;;;;4998339;28;20189;-82
2024/03/20 10:48:16;;;;;;;0.80;0.50;;;25.40;64.80;;;;;;4999370;28;20232;-81
2024/03/20 10:50:43;;;;;;;0.50;0.50;;;26.20;61.60;;;;;;5000467;28;20212;-82
2024/03/20 10:53:11;;;;;;;1.23;0.60;;;27.40;58.70;;;;;;4998434;28;20670;-82
2024/03/20 10:55:37;;;;;;;0.93;0.60;;;27.80;57.50;;;;;;4997918;28;20197;-82
2024/03/20 10:58:05;;;;;;;0.40;0.40;;;28.20;55.30;;;;;;4997739;28;20225;-82
2024/03/20 11:00:30;;;;;;;0.60;0.50;;;27.90;54.80;;;;;;4997288;28;20216;-82
2024/03/20 11:02:57;;;;;;;0.70;0.55;;;27.90;55.30;;;;;;4997787;28;20658;-82
2024/03/20 11:05:36;;;;;;;0.63;0.60;;;28.00;53.90;;;;;;4997219;28;20291;-82
2024/03/20 11:08:06;;;;;;;0.40;0.40;;;27.60;54.30;;;;;;4997044;28;20304;-82
2024/03/20 11:10:34;;;;;;;0.85;0.70;;;27.00;54.80;;;;;;4997334;28;20678;-82
2024/03/20 11:13:02;;;;;;;0.52;0.52;;;25.60;56.90;;;;;;4997192;28;20197;-82
2024/03/20 11:15:29;;;;;;;0.70;0.57;;;24.70;60.10;;;;;;4997392;28;20207;-82
2024/03/20 11:17:57;;;;;;;0.50;0.50;;;24.20;62.00;;;;;;4997016;28;20220;-82
2024/03/20 11:20:42;;;;;;;0.50;0.50;;;23.80;64.10;;;;;;5003824;28;20215;-82
2024/03/20 11:23:21;;;;;;;0.60;0.60;;;23.20;61.10;;;;;;5002109;28;20244;-83
2024/03/20 11:25:48;;;;;;;0.40;0.40;;;23.00;65.80;;;;;;4998214;28;20199;-82
2024/03/20 11:28:15;;;;;;;0.40;0.40;;;22.70;61.20;;;;;;4997541;28;20259;-82
2024/03/20 11:30:41;;;;;;;0.73;0.50;;;22.10;63.40;;;;;;4997623;28;20189;-82
2024/03/20 11:33:10;;;;;;;0.40;0.40;;;21.80;64.70;;;;;;4997713;28;20502;-82
2024/03/20 11:35:37;;;;;;;1.33;0.60;;;21.60;66.30;;;;;;4997097;28;20197;-82
2024/03/20 11:38:05;;;;;;;0.57;0.57;;;21.60;67.10;;;;;;4997166;28;20522;-82
2024/03/20 11:40:32;;;;;;;0.60;0.60;;;21.60;66.60;;;;;;4996969;28;20452;-82
2024/03/20 11:43:00;;;;;;;0.50;0.50;;;21.60;67.00;;;;;;4996895;28;20448;-82
2024/03/20 11:45:26;;;;;;;0.53;0.53;;;21.60;66.40;;;;;;4996759;28;20463;-82
2024/03/20 11:47:54;;;;;;;5.30;0.40;;;21.70;65.80;;;;;;4996854;28;20460;-82
2024/03/20 11:50:20;;;;;;;0.50;0.50;;;21.60;64.20;;;;;;4996637;28;20942;-82
2024/03/20 11:52:52;;;;;;;0.90;0.90;;;21.30;64.00;;;;;;4996844;28;20447;-82
2024/03/20 11:55:20;;;;;;;0.70;0.70;;;21.30;67.00;;;;;;4996292;28;20968;-82
2024/03/20 11:57:46;;;;;;;0.50;0.50;;;21.00;64.80;;;;;;4996527;28;20564;-82
2024/03/20 12:00:16;;;;;;;0.40;0.40;;;20.80;64.30;;;;;;4995942;28;20834;-81
2024/03/20 12:02:45;;;;;;;1.27;0.53;;;20.70;65.40;;;;;;4996190;28;20570;-81
2024/03/20 12:05:14;;;;;;;0.47;0.47;;;20.70;66.50;;;;;;5010358;28;20481;-80
2024/03/20 12:07:40;;;;;;;0.40;0.40;;;20.70;66.80;;;;;;5014832;28;20491;-80
2024/03/20 12:10:31;;;;;;;0.40;0.40;;;20.70;66.40;;;;;;5016828;28;20819;-80
2024/03/20 12:12:58;;;;;;;0.43;0.43;;;20.80;65.00;;;;;;5015309;28;20483;-80
2024/03/20 12:15:27;;;;;;;0.60;0.60;;;20.70;66.20;;;;;;5012083;28;20489;-81
2024/03/20 12:17:54;;;;;;;0.40;0.40;;;20.40;65.60;;;;;;5011098;28;20491;-81
2024/03/20 12:20:20;;;;;;;0.40;0.40;;;20.20;65.30;;;;;;5007685;28;20428;-81
2024/03/20 12:22:47;;;;;;;0.90;0.50;;;20.00;64.60;;;;;;4999150;28;20840;-81
2024/03/20 12:25:12;;;;;;;0.50;0.50;;;19.90;65.80;;;;;;4998092;28;20577;-81
2024/03/20 12:27:39;;;;;;;0.70;0.70;;;19.80;66.90;;;;;;4997335;28;20464;-81
2024/03/20 12:30:07;;;;;;;0.80;0.50;;;19.50;67.20;;;;;;4996583;28;20237;-81
2024/03/20 12:32:35;;;;;;;0.50;0.40;;;19.40;66.80;;;;;;5000199;28;20502;-81
2024/03/20 12:35:01;;;;;;;0.60;0.50;;;19.30;66.70;;;;;;5000199;28;20448;-81
2024/03/20 12:37:29;;;;;;;0.57;0.40;;;19.40;66.60;;;;;;5001463;28;20462;-82
2024/03/20 12:39:55;;;;;;;1.20;0.50;;;19.40;67.10;;;;;;5003017;28;20201;-81
2024/03/20 12:42:22;;;;;;;0.50;0.50;;;19.30;65.80;;;;;;4999349;28;20491;-81
2024/03/20 12:44:48;;;;;;;0.50;0.50;;;19.40;67.70;;;;;;4997449;28;20199;-80
2024/03/20 12:47:15;;;;;;;0.47;0.40;;;19.60;70.30;;;;;;4999514;28;20522;-81
2024/03/20 12:49:45;;;;;;;0.50;0.40;;;19.60;66.90;;;;;;5000193;28;20468;-81
2024/03/20 12:52:14;;;;;;;0.43;0.40;;;19.60;67.00;;;;;;4995807;28;20451;-82
2024/03/20 12:54:45;;;;;;;0.40;0.40;;;19.40;65.40;;;;;;4995224;28;20452;-82
2024/03/20 12:57:12;;;;;;;1.10;0.40;;;19.30;64.60;;;;;;4995158;28;20416;-82
2024/03/20 12:59:39;;;;;;;1.93;0.60;;;19.30;64.00;;;;;;4994552;28;20993;-82
2024/03/20 13:02:13;;;;;;;0.40;0.40;;;19.30;65.80;;;;;;4994804;28;20476;-82
2024/03/20 13:04:40;;;;;;;1.27;0.50;;;19.20;65.00;;;;;;4995179;28;20204;-82